This is the latest recevied weather packets stored in our database for station/object VE6EN. If no packets are shown the sender has not sent any weather packets the latest 10 day(s).
| Time | Temp. | Humidity | Pressure | Rain* | Wind** | Luminosity | Snow |
|---|---|---|---|---|---|---|---|
| 1787527808 | 20.56° C | 44% | 1009.6 hPa | 0 mm | - | - | - |
| 1787527208 | 21.11° C | 42% | 1009.3 hPa | 0 mm | - | - | - |
| 1787526004 | 22.78° C | 36% | 1009 hPa | 0 mm | - | - | - |
| 1787525404 | 23.33° C | 33% | 1008.9 hPa | 0 mm | - | - | - |
| 1787524804 | 23.89° C | 31% | 1008.7 hPa | 0 mm | - | - | - |
| 1787524203 | 25° C | 30% | 1008.6 hPa | 0 mm | - | - | - |
| 1787523615 | 25° C | 32% | 1008.6 hPa | 0 mm | - | - | - |
| 1787523009 | 25° C | 30% | 1008.6 hPa | 0 mm | - | - | - |
| 1787522409 | 24.44° C | 35% | 1008.7 hPa | 0 mm | - | - | - |
| 1787521806 | 23.89° C | 36% | 1008.7 hPa | 0 mm | - | - | - |
| 1787521209 | 22.78° C | 38% | 1008.8 hPa | 0 mm | - | - | - |
| 1787520604 | 22.78° C | 37% | 1008.8 hPa | 0 mm | - | - | - |
| 1787520003 | 22.78° C | 39% | 1008.8 hPa | 0 mm | - | - | - |
| 1787519404 | 22.78° C | 38% | 1008.8 hPa | 0 mm | - | - | - |
| 1787518803 | 23.33° C | 36% | 1008.8 hPa | 0 mm | - | - | - |
| 1787518204 | 23.33° C | 34% | 1008.7 hPa | 0 mm | - | - | - |
| 1787517603 | 23.33° C | 42% | 1008.8 hPa | 0 mm | - | - | - |
| 1787517003 | 23.89° C | 41% | 1008.8 hPa | 0 mm | - | - | - |
| 1787516404 | 23.89° C | 46% | 1008.9 hPa | 0 mm | - | - | - |
| 1787515804 | 23.33° C | 49% | 1009 hPa | 0 mm | - | - | - |
| 1787515203 | 23.33° C | 46% | 1009.1 hPa | 0 mm | - | - | - |
| 1787514601 | 22.78° C | 47% | 1009.3 hPa | 0 mm | - | - | - |
| 1787514004 | 22.78° C | 47% | 1009.3 hPa | 0 mm | - | - | - |
| 1787513400 | 22.22° C | 50% | 1009.4 hPa | 0 mm | - | - | - |
| 1787512803 | 22.78° C | 46% | 1009.6 hPa | 0 mm | - | - | - |
* Rain latest hour (hover to see other rain measurements)
** Current wind speed in m/s (hover to see current wind gust speed)